Time;durP1;ratioP1;P1;durP2;ratioP2;P2;SDS_P1;SDS_P2;PMS_P1;PMS_P2;Temp;Humidity;BMP_temperature;BMP_pressure;BME280_temperature;BME280_humidity;BME280_pressure;Samples;Min_cycle;Max_cycle;Signal;HPM_P1;HPM_P2
2022/09/20 00:01:20;;;;;;;9.10;4.53;;;8.30;99.90;;;;;;6313839;22;20420;-62
2022/09/20 00:03:51;;;;;;;9.47;4.67;;;8.40;99.90;;;;;;6314607;22;20423;-62
2022/09/20 00:06:20;;;;;;;10.37;4.43;;;8.40;99.90;;;;;;6314083;22;20427;-61
2022/09/20 00:08:48;;;;;;;14.13;4.60;;;8.50;99.90;;;;;;6313856;22;20511;-62
2022/09/20 00:11:17;;;;;;;8.23;4.63;;;8.50;99.90;;;;;;6313191;22;20416;-62
2022/09/20 00:13:45;;;;;;;9.53;4.47;;;8.50;99.90;;;;;;6314075;22;20713;-62
2022/09/20 00:16:21;;;;;;;8.00;4.50;;;8.60;99.90;;;;;;6313487;22;20417;-62
2022/09/20 00:18:49;;;;;;;11.20;4.47;;;8.60;99.90;;;;;;6313702;22;20485;-62
2022/09/20 00:21:17;;;;;;;8.47;4.40;;;8.60;99.90;;;;;;6313894;22;20442;-62
2022/09/20 00:23:45;;;;;;;8.03;4.10;;;8.70;99.90;;;;;;6314461;22;20424;-62
2022/09/20 00:26:13;;;;;;;9.53;4.50;;;8.70;99.90;;;;;;6313697;22;20463;-62
2022/09/20 00:28:43;;;;;;;7.60;4.90;;;8.70;99.90;;;;;;6313840;22;20916;-62
2022/09/20 00:31:14;;;;;;;13.43;4.73;;;8.70;99.90;;;;;;6313816;22;20482;-62
2022/09/20 00:36:30;;;;;;;7.40;4.13;;;8.70;99.90;;;;;;6313513;22;20392;-62
2022/09/20 00:38:58;;;;;;;6.20;4.10;;;8.60;99.90;;;;;;6313162;22;20440;-61
2022/09/20 00:41:28;;;;;;;7.10;4.23;;;8.50;99.90;;;;;;6313539;22;20418;-62
2022/09/20 00:43:56;;;;;;;7.20;4.40;;;8.40;99.90;;;;;;6313814;22;20421;-61
2022/09/20 00:46:28;;;;;;;5.23;3.97;;;8.40;99.90;;;;;;6313882;22;20490;-62
2022/09/20 00:49:03;;;;;;;6.50;3.97;;;8.40;99.90;;;;;;6313627;22;20420;-62
2022/09/20 00:51:38;;;;;;;6.50;4.83;;;8.30;99.90;;;;;;6313620;22;20427;-62
2022/09/20 00:54:09;;;;;;;6.30;4.40;;;8.20;99.90;;;;;;6313179;22;20394;-62
2022/09/20 00:56:40;;;;;;;11.33;4.80;;;8.10;99.90;;;;;;6313325;22;20416;-61
2022/09/20 00:59:14;;;;;;;10.67;4.40;;;8.00;99.90;;;;;;6313664;22;20481;-61
2022/09/20 01:01:43;;;;;;;7.73;4.60;;;8.10;99.90;;;;;;6313403;22;20429;-61
2022/09/20 01:04:16;;;;;;;8.63;4.60;;;8.00;99.90;;;;;;6313981;22;20680;-61
2022/09/20 01:06:48;;;;;;;7.00;4.73;;;8.00;99.90;;;;;;6313379;22;20808;-61
2022/09/20 01:09:16;;;;;;;7.93;5.07;;;7.90;99.90;;;;;;6313353;22;20451;-62
2022/09/20 01:11:43;;;;;;;7.03;4.30;;;7.90;99.90;;;;;;6313231;22;20464;-61
2022/09/20 01:14:13;;;;;;;10.57;5.23;;;7.80;99.90;;;;;;6313276;22;20423;-61
2022/09/20 01:16:41;;;;;;;7.47;4.67;;;7.80;99.90;;;;;;6313811;22;20847;-62
2022/09/20 01:19:16;;;;;;;12.93;4.63;;;7.80;99.90;;;;;;6313454;22;20826;-61
2022/09/20 01:21:46;;;;;;;10.20;5.10;;;7.70;99.90;;;;;;6313459;22;20394;-62
2022/09/20 01:24:19;;;;;;;7.60;4.50;;;7.70;99.90;;;;;;6312854;22;20431;-61
2022/09/20 01:27:05;;;;;;;9.20;5.00;;;7.60;99.90;;;;;;6312007;22;20390;-61
2022/09/20 01:29:49;;;;;;;12.00;6.70;;;7.60;99.90;;;;;;6312692;22;20391;-61
2022/09/20 01:32:23;;;;;;;13.57;4.80;;;7.60;99.90;;;;;;6313326;22;20511;-61
2022/09/20 01:34:58;;;;;;;8.70;4.33;;;7.60;99.90;;;;;;6312415;22;20477;-61
2022/09/20 01:37:38;;;;;;;7.80;5.10;;;7.60;99.90;;;;;;6312739;22;20425;-61
2022/09/20 01:40:13;;;;;;;11.20;4.80;;;7.50;99.90;;;;;;6311777;22;20414;-61
2022/09/20 01:42:52;;;;;;;8.77;4.57;;;7.50;99.90;;;;;;6313229;22;20682;-61
2022/09/20 01:45:27;;;;;;;6.80;4.90;;;7.40;99.90;;;;;;6312351;22;20420;-61
2022/09/20 01:48:03;;;;;;;7.70;5.43;;;7.50;99.90;;;;;;6313157;22;20422;-61
2022/09/20 01:50:37;;;;;;;7.50;5.00;;;7.50;99.90;;;;;;6311429;22;20386;-61
2022/09/20 01:53:44;;;;;;;10.50;4.43;;;7.50;99.90;;;;;;6312551;22;20416;-61
2022/09/20 01:56:53;;;;;;;10.20;5.80;;;7.50;99.90;;;;;;6312666;22;20816;-61
2022/09/20 01:59:38;;;;;;;6.27;4.43;;;7.40;99.90;;;;;;6238468;22;20383;-61
2022/09/20 02:02:36;;;;;;;7.20;5.37;;;7.40;99.90;;;;;;6312156;22;20477;-61
2022/09/20 02:05:34;;;;;;;10.13;4.83;;;7.40;99.90;;;;;;6310578;22;20448;-61
2022/09/20 02:08:32;;;;;;;8.57;5.77;;;7.40;99.90;;;;;;6312799;22;20416;-61
2022/09/20 02:11:14;;;;;;;8.37;4.93;;;7.30;99.90;;;;;;6311359;22;20394;-61
2022/09/20 02:14:05;;;;;;;13.17;5.50;;;7.20;99.90;;;;;;6312864;22;20408;-61
2022/09/20 02:16:50;;;;;;;7.97;4.63;;;7.10;99.90;;;;;;6306972;22;20424;-61
2022/09/20 02:19:41;;;;;;;7.43;4.97;;;7.20;99.90;;;;;;6312477;22;20495;-61
2022/09/20 02:22:26;;;;;;;9.20;5.40;;;7.20;99.90;;;;;;6312219;22;20420;-61
2022/09/20 02:25:01;;;;;;;9.37;5.73;;;7.20;99.90;;;;;;6312174;22;20735;-61
2022/09/20 02:27:41;;;;;;;6.87;5.13;;;7.10;99.90;;;;;;6311920;22;20462;-61
2022/09/20 02:30:19;;;;;;;7.57;5.40;;;7.10;99.90;;;;;;6312055;22;20422;-61
2022/09/20 02:33:10;;;;;;;7.47;5.10;;;7.00;99.90;;;;;;6312301;22;20420;-61
2022/09/20 02:35:54;;;;;;;8.23;5.40;;;7.00;99.90;;;;;;6312467;22;20379;-61
2022/09/20 02:38:42;;;;;;;9.73;5.70;;;7.10;99.90;;;;;;6312886;22;20421;-61
2022/09/20 02:41:51;;;;;;;11.23;5.23;;;7.10;99.90;;;;;;6312940;22;20845;-61
2022/09/20 02:44:29;;;;;;;11.50;5.87;;;7.10;99.90;;;;;;6312958;22;20420;-61
2022/09/20 02:47:07;;;;;;;8.60;5.20;;;7.10;99.90;;;;;;6312447;22;20757;-61
2022/09/20 02:49:44;;;;;;;12.07;5.70;;;7.10;99.90;;;;;;6312870;22;20426;-61
2022/09/20 02:52:20;;;;;;;9.40;5.73;;;7.10;99.90;;;;;;6311593;22;20417;-61
2022/09/20 02:54:57;;;;;;;7.43;5.37;;;7.10;99.90;;;;;;6313199;22;20473;-61
2022/09/20 02:57:37;;;;;;;7.77;5.30;;;7.10;99.90;;;;;;6313501;22;20412;-61
2022/09/20 03:00:09;;;;;;;9.30;5.90;;;7.00;99.90;;;;;;6313199;22;20412;-61
2022/09/20 03:02:51;;;;;;;12.23;5.80;;;7.00;99.90;;;;;;6311823;22;20437;-61
2022/09/20 03:05:24;;;;;;;8.90;5.40;;;6.90;99.90;;;;;;6312772;22;20725;-61
2022/09/20 03:08:10;;;;;;;8.03;5.53;;;6.80;99.90;;;;;;6312569;22;20531;-61
2022/09/20 03:10:50;;;;;;;7.33;5.73;;;6.80;99.90;;;;;;6312624;22;20420;-61
2022/09/20 03:13:29;;;;;;;11.60;5.27;;;6.70;99.90;;;;;;6312482;22;20416;-61
2022/09/20 03:16:05;;;;;;;10.73;5.60;;;6.80;99.90;;;;;;6312995;22;20466;-61
2022/09/20 03:18:47;;;;;;;10.40;5.07;;;6.80;99.90;;;;;;6312310;22;20424;-61
2022/09/20 03:21:28;;;;;;;10.63;5.17;;;6.70;99.90;;;;;;6312700;22;20418;-61
2022/09/20 03:24:04;;;;;;;8.63;4.67;;;6.60;99.90;;;;;;6312416;22;20395;-61
2022/09/20 03:26:45;;;;;;;6.30;4.33;;;6.50;99.90;;;;;;6312382;22;20427;-61
2022/09/20 03:29:25;;;;;;;6.20;4.70;;;6.50;99.90;;;;;;6312405;22;20706;-61
2022/09/20 03:32:08;;;;;;;10.47;5.50;;;6.40;99.90;;;;;;6312622;22;20412;-61
2022/09/20 03:34:47;;;;;;;10.70;5.67;;;6.50;99.90;;;;;;6313137;22;20419;-61
2022/09/20 03:37:42;;;;;;;10.53;6.17;;;6.40;99.90;;;;;;6314605;22;20672;-61
2022/09/20 03:40:47;;;;;;;10.03;5.30;;;6.50;99.90;;;;;;6313447;22;20442;-61
2022/09/20 03:43:25;;;;;;;9.33;6.30;;;6.40;99.90;;;;;;6226977;22;20425;-61
2022/09/20 03:46:03;;;;;;;8.47;5.40;;;6.40;99.90;;;;;;6314476;22;20422;-61
2022/09/20 03:49:27;;;;;;;11.80;6.10;;;6.50;99.90;;;;;;6314804;22;20392;-61
2022/09/20 03:52:04;;;;;;;7.80;5.80;;;6.50;99.90;;;;;;6226821;23;20418;-61
2022/09/20 03:54:58;;;;;;;9.43;5.70;;;6.40;99.90;;;;;;6302467;22;20399;-61
2022/09/20 03:58:02;;;;;;;9.10;6.10;;;6.50;99.90;;;;;;6314595;22;20499;-61
2022/09/20 04:00:42;;;;;;;9.37;6.57;;;6.50;99.90;;;;;;6264480;22;20422;-61
2022/09/20 04:03:28;;;;;;;7.27;5.90;;;6.50;99.90;;;;;;6314560;22;20458;-61
2022/09/20 04:06:17;;;;;;;6.80;5.20;;;6.50;99.90;;;;;;6314015;22;20563;-61
2022/09/20 04:09:01;;;;;;;9.33;5.97;;;6.50;99.90;;;;;;6314634;22;20870;-61
2022/09/20 04:11:39;;;;;;;9.27;6.17;;;6.60;99.90;;;;;;6313119;22;20460;-61
2022/09/20 04:14:17;;;;;;;7.60;5.30;;;6.60;99.90;;;;;;6314010;22;20427;-61
2022/09/20 04:16:52;;;;;;;12.50;6.43;;;6.70;99.90;;;;;;6314190;22;20671;-61
2022/09/20 04:19:26;;;;;;;8.50;6.57;;;6.70;99.90;;;;;;6313637;22;20477;-61
2022/09/20 04:21:57;;;;;;;12.70;7.00;;;6.70;99.90;;;;;;6313637;22;20854;-61
2022/09/20 04:24:37;;;;;;;7.70;6.30;;;6.70;99.90;;;;;;6314383;22;20417;-61
2022/09/20 04:27:09;;;;;;;7.50;6.17;;;6.70;99.90;;;;;;6311046;22;20476;-61
2022/09/20 04:29:44;;;;;;;7.33;5.30;;;6.70;99.90;;;;;;6313332;22;20738;-61
2022/09/20 04:32:18;;;;;;;10.57;6.10;;;6.70;99.90;;;;;;6314025;22;20420;-61
2022/09/20 04:37:37;;;;;;;8.50;6.17;;;6.80;99.90;;;;;;6313057;22;20427;-61
2022/09/20 04:40:14;;;;;;;7.73;5.70;;;6.80;99.90;;;;;;6313197;22;20774;-61
2022/09/20 04:43:16;;;;;;;8.70;5.37;;;6.90;99.90;;;;;;6313898;22;20411;-61
2022/09/20 04:46:11;;;;;;;7.27;5.50;;;6.90;99.90;;;;;;6311201;22;20425;-61
2022/09/20 04:49:19;;;;;;;10.80;6.20;;;7.00;99.90;;;;;;6314400;22;20403;-61
2022/09/20 04:52:34;;;;;;;8.70;6.40;;;7.00;99.90;;;;;;6314692;22;20448;-61
2022/09/20 04:55:28;;;;;;;11.23;6.60;;;7.10;99.90;;;;;;6273131;22;20486;-61
2022/09/20 04:58:46;;;;;;;9.47;6.60;;;7.20;99.90;;;;;;6314120;22;20411;-61
2022/09/20 05:02:05;;;;;;;10.57;6.23;;;7.20;99.90;;;;;;6219500;23;20946;-61
2022/09/20 05:05:06;;;;;;;7.70;5.40;;;7.20;99.90;;;;;;6313566;22;20735;-61
2022/09/20 05:07:59;;;;;;;9.00;6.40;;;7.30;99.90;;;;;;6312264;22;20412;-61
2022/09/20 05:11:05;;;;;;;13.23;6.93;;;7.30;99.90;;;;;;6313166;22;20413;-61
2022/09/20 05:13:49;;;;;;;8.60;6.60;;;7.40;99.90;;;;;;6313663;22;20415;-61
2022/09/20 05:16:23;;;;;;;10.67;6.80;;;7.40;99.90;;;;;;6313736;22;20686;-62
2022/09/20 05:19:07;;;;;;;10.37;6.20;;;7.40;99.90;;;;;;6313315;22;20514;-61
2022/09/20 05:22:05;;;;;;;9.70;6.40;;;7.40;99.90;;;;;;6313882;22;20394;-62
2022/09/20 05:25:09;;;;;;;9.30;7.73;;;7.40;99.90;;;;;;6312069;22;20398;-61
2022/09/20 05:27:45;;;;;;;10.67;6.30;;;7.50;99.90;;;;;;6305007;22;20402;-62
2022/09/20 05:30:21;;;;;;;10.80;7.37;;;7.50;99.90;;;;;;6313447;22;20393;-61
2022/09/20 05:33:02;;;;;;;9.30;6.77;;;7.60;99.90;;;;;;6313084;22;20534;-62
2022/09/20 05:35:37;;;;;;;11.00;6.80;;;7.60;99.90;;;;;;6312689;22;20412;-61
2022/09/20 05:38:15;;;;;;;12.37;8.67;;;7.70;99.90;;;;;;6312393;22;20426;-63
2022/09/20 05:40:58;;;;;;;11.93;9.10;;;7.80;99.90;;;;;;6310017;22;20450;-63
2022/09/20 05:43:32;;;;;;;13.83;7.20;;;7.80;99.90;;;;;;6309776;22;20420;-63
2022/09/20 05:46:11;;;;;;;14.70;7.90;;;7.80;99.90;;;;;;6309046;22;20443;-63
2022/09/20 05:48:52;;;;;;;13.30;8.37;;;7.90;99.90;;;;;;6309543;22;20390;-63
2022/09/20 05:51:45;;;;;;;14.90;7.93;;;8.10;99.90;;;;;;6309825;22;20456;-62
2022/09/20 05:54:47;;;;;;;16.50;8.30;;;8.10;99.90;;;;;;6308740;22;20455;-63
2022/09/20 05:57:29;;;;;;;14.40;9.93;;;8.20;99.90;;;;;;6257293;22;20726;-63
2022/09/20 06:00:07;;;;;;;14.30;9.10;;;8.30;99.90;;;;;;6308215;22;20422;-63
2022/09/20 06:02:41;;;;;;;10.33;7.87;;;8.40;99.90;;;;;;6306338;22;20466;-63
2022/09/20 06:05:15;;;;;;;15.20;11.07;;;8.50;99.90;;;;;;6307541;22;20416;-63
2022/09/20 06:08:10;;;;;;;13.33;8.97;;;8.60;99.90;;;;;;6308476;22;20543;-63
2022/09/20 06:11:00;;;;;;;13.63;9.40;;;8.70;99.90;;;;;;6309361;22;20395;-63
2022/09/20 06:13:50;;;;;;;10.63;8.27;;;8.80;99.90;;;;;;6309389;22;20416;-63
2022/09/20 06:16:25;;;;;;;13.90;8.13;;;8.90;99.90;;;;;;6309112;22;20800;-63
2022/09/20 06:19:05;;;;;;;9.17;8.10;;;9.00;99.90;;;;;;6309768;22;20451;-63
2022/09/20 06:21:48;;;;;;;14.00;8.50;;;9.10;99.90;;;;;;6309695;22;20416;-63
2022/09/20 06:24:28;;;;;;;12.90;8.63;;;9.10;99.90;;;;;;6309842;22;20413;-63
2022/09/20 06:27:01;;;;;;;13.47;8.43;;;9.20;99.90;;;;;;6309531;22;20437;-63
2022/09/20 06:29:31;;;;;;;10.03;8.30;;;9.30;99.90;;;;;;6310362;22;20543;-63
2022/09/20 06:32:01;;;;;;;12.67;9.20;;;9.40;99.90;;;;;;6310383;22;20837;-63
2022/09/20 06:34:31;;;;;;;13.30;9.10;;;9.50;99.90;;;;;;6310065;22;20660;-63
2022/09/20 06:42:52;;;;;;;14.23;9.47;;;9.80;99.90;;;;;;6308931;22;20936;-63
2022/09/20 06:45:20;;;;;;;13.83;9.30;;;9.90;99.90;;;;;;6309780;22;20422;-63
2022/09/20 06:47:47;;;;;;;18.23;9.47;;;10.00;99.90;;;;;;6308161;22;20490;-63
2022/09/20 06:50:16;;;;;;;13.13;8.77;;;10.20;99.90;;;;;;6309565;22;20431;-63
2022/09/20 06:52:45;;;;;;;11.23;9.03;;;10.30;99.90;;;;;;6309963;22;20431;-63
2022/09/20 06:55:20;;;;;;;14.73;9.50;;;10.20;99.90;;;;;;6309516;22;20489;-63
2022/09/20 06:57:48;;;;;;;14.60;10.10;;;10.40;99.90;;;;;;6309423;22;20721;-63
2022/09/20 07:00:16;;;;;;;18.00;10.53;;;10.40;99.90;;;;;;6309592;22;20855;-63
2022/09/20 07:02:45;;;;;;;16.43;10.60;;;10.60;99.90;;;;;;6309438;22;20853;-63
2022/09/20 07:05:20;;;;;;;12.23;10.13;;;10.80;99.90;;;;;;6309384;22;20420;-63
2022/09/20 07:07:48;;;;;;;12.70;9.47;;;11.00;99.90;;;;;;6309568;22;20476;-63
2022/09/20 07:10:16;;;;;;;12.73;10.17;;;11.00;99.90;;;;;;6311307;22;20414;-63
2022/09/20 07:12:45;;;;;;;15.30;10.13;;;11.10;99.90;;;;;;6310343;22;20403;-64
2022/09/20 07:15:13;;;;;;;17.70;11.20;;;11.30;99.90;;;;;;6309622;22;20445;-64
2022/09/20 07:17:44;;;;;;;17.37;10.23;;;11.80;99.90;;;;;;6310658;22;20852;-64
2022/09/20 07:20:12;;;;;;;10.33;9.20;;;12.10;99.90;;;;;;6309457;22;20412;-64
2022/09/20 07:22:40;;;;;;;13.03;8.73;;;12.30;99.90;;;;;;6309697;22;20420;-64
2022/09/20 07:25:08;;;;;;;13.47;8.17;;;12.70;99.90;;;;;;6309318;22;20426;-64
2022/09/20 07:27:40;;;;;;;11.07;7.47;;;13.00;99.90;;;;;;6311465;22;20474;-63
2022/09/20 07:30:08;;;;;;;10.27;6.37;;;13.70;99.90;;;;;;6311221;22;20420;-64
2022/09/20 07:32:35;;;;;;;11.90;6.73;;;13.80;99.90;;;;;;6311021;22;20426;-64
2022/09/20 07:35:02;;;;;;;10.30;5.70;;;13.60;99.90;;;;;;6311337;22;20446;-64
2022/09/20 07:37:30;;;;;;;9.03;6.27;;;13.50;48.80;;;;;;6310059;22;20416;-64
2022/09/20 07:39:57;;;;;;;9.87;5.50;;;13.50;1.00;;;;;;6309805;22;20498;-63
2022/09/20 07:42:28;;;;;;;9.37;5.90;;;13.20;99.90;;;;;;6309564;22;21024;-63
2022/09/20 07:44:57;;;;;;;9.77;5.67;;;12.90;99.90;;;;;;6308423;22;20415;-64
2022/09/20 07:47:26;;;;;;;9.40;5.80;;;12.80;1.00;;;;;;6308244;22;20450;-63
2022/09/20 07:49:54;;;;;;;8.20;6.13;;;12.50;1.00;;;;;;6310100;22;20416;-63
2022/09/20 07:52:21;;;;;;;11.47;5.90;;;12.50;99.90;;;;;;6312059;22;20612;-62
2022/09/20 07:54:48;;;;;;;8.53;5.63;;;12.40;1.00;;;;;;6311660;22;20876;-62
2022/09/20 07:57:16;;;;;;;14.70;5.60;;;12.30;89.30;;;;;;6310259;22;20459;-63
2022/09/20 07:59:43;;;;;;;9.57;5.27;;;12.40;1.00;;;;;;6310162;22;20506;-63
2022/09/20 08:02:17;;;;;;;9.60;3.90;;;12.30;99.90;;;;;;6311268;22;20798;-63
2022/09/20 08:04:44;;;;;;;7.23;4.40;;;12.30;1.00;;;;;;6310727;22;20421;-63
2022/09/20 08:07:12;;;;;;;6.60;3.77;;;12.50;99.90;;;;;;6310566;22;20444;-63
2022/09/20 08:09:42;;;;;;;7.73;4.50;;;12.40;99.90;;;;;;6310153;22;20796;-63
2022/09/20 08:12:09;;;;;;;11.03;5.50;;;12.30;99.90;;;;;;6310750;22;20455;-64
2022/09/20 08:14:36;;;;;;;12.03;6.93;;;12.70;99.90;;;;;;6311195;22;20748;-64
2022/09/20 08:17:03;;;;;;;16.17;6.47;;;13.40;99.90;;;;;;6310838;22;20412;-64
2022/09/20 08:19:32;;;;;;;12.03;5.43;;;13.50;99.90;;;;;;6301412;22;20444;-64
2022/09/20 08:21:59;;;;;;;8.33;5.07;;;13.10;1.00;;;;;;6310265;22;20452;-64
2022/09/20 08:24:29;;;;;;;12.50;6.60;;;12.80;1.00;;;;;;6310022;22;20416;-64
2022/09/20 08:26:57;;;;;;;8.67;6.50;;;12.70;1.00;;;;;;6309825;22;20447;-64
2022/09/20 08:29:24;;;;;;;11.30;7.23;;;13.20;99.90;;;;;;6308619;22;20872;-64
2022/09/20 08:31:51;;;;;;;9.73;6.03;;;13.90;97.70;;;;;;6310814;22;20415;-64
2022/09/20 08:34:20;;;;;;;9.90;6.10;;;14.20;1.00;;;;;;6310830;22;20462;-65
2022/09/20 08:36:50;;;;;;;10.37;6.67;;;14.30;1.00;;;;;;6310531;22;20391;-64
2022/09/20 08:39:21;;;;;;;14.67;8.73;;;14.20;1.00;;;;;;6310157;22;20440;-64
2022/09/20 08:41:53;;;;;;;12.60;7.47;;;14.60;1.00;;;;;;6311040;22;20436;-64
2022/09/20 08:44:26;;;;;;;8.30;6.60;;;14.50;1.00;;;;;;6310444;22;20478;-65
2022/09/20 08:47:04;;;;;;;10.17;7.57;;;14.50;1.00;;;;;;6310234;22;20458;-64
2022/09/20 08:49:34;;;;;;;11.50;7.47;;;14.40;1.00;;;;;;6310693;22;20498;-65
2022/09/20 08:52:04;;;;;;;13.30;5.70;;;14.20;1.00;;;;;;6311093;22;20729;-64
2022/09/20 08:54:35;;;;;;;10.10;5.43;;;14.30;1.00;;;;;;6310091;22;20424;-64
2022/09/20 08:57:05;;;;;;;9.57;5.50;;;14.20;1.00;;;;;;6310663;22;20689;-64
2022/09/20 08:59:33;;;;;;;5.93;5.07;;;14.00;1.00;;;;;;6310528;22;20446;-65
2022/09/20 09:02:01;;;;;;;12.77;6.00;;;14.10;1.00;;;;;;6310867;22;20420;-64
2022/09/20 09:04:36;;;;;;;12.70;5.60;;;14.20;1.00;;;;;;6310403;22;20714;-64
2022/09/20 09:07:07;;;;;;;6.80;4.20;;;14.00;1.00;;;;;;6310772;22;20444;-64
2022/09/20 09:09:41;;;;;;;8.40;4.93;;;14.30;1.00;;;;;;6310249;22;20420;-64
2022/09/20 09:12:19;;;;;;;7.20;4.53;;;14.90;1.00;;;;;;6311049;22;20423;-64
2022/09/20 09:14:51;;;;;;;8.03;3.97;;;15.10;1.00;;;;;;6309880;22;20396;-65
2022/09/20 09:17:20;;;;;;;7.73;3.80;;;14.50;99.90;;;;;;6309939;22;20864;-64
2022/09/20 09:19:49;;;;;;;5.10;3.37;;;14.30;99.90;;;;;;6310564;22;20417;-64
2022/09/20 09:22:25;;;;;;;7.10;3.67;;;14.40;99.90;;;;;;6309412;22;20427;-64
2022/09/20 09:25:21;;;;;;;6.17;3.40;;;14.30;99.90;;;;;;6309696;22;20845;-64
2022/09/20 09:27:54;;;;;;;7.57;4.47;;;14.80;1.00;;;;;;6309287;22;20498;-64
2022/09/20 09:30:25;;;;;;;6.13;2.63;;;15.10;99.90;;;;;;6310288;22;20398;-64
2022/09/20 09:32:53;;;;;;;8.37;2.63;;;14.70;99.90;;;;;;6308525;22;20526;-64
2022/09/20 09:35:29;;;;;;;9.50;3.80;;;14.60;99.90;;;;;;6309717;22;20773;-64
2022/09/20 09:38:00;;;;;;;8.20;2.97;;;14.40;99.90;;;;;;6310394;22;20849;-64
2022/09/20 09:40:30;;;;;;;8.53;3.57;;;14.40;99.90;;;;;;6309573;22;20410;-64
2022/09/20 09:42:59;;;;;;;6.73;3.03;;;14.00;99.90;;;;;;6310132;22;20773;-64
2022/09/20 09:45:35;;;;;;;9.17;3.47;;;13.90;99.90;;;;;;6308601;22;20423;-64
2022/09/20 09:48:05;;;;;;;5.53;3.80;;;14.30;99.90;;;;;;6310098;22;20704;-64
2022/09/20 09:50:33;;;;;;;4.63;3.13;;;14.20;99.90;;;;;;6309588;22;20516;-64
2022/09/20 09:53:10;;;;;;;9.17;4.30;;;14.30;99.90;;;;;;6309691;22;20391;-65
2022/09/20 09:56:09;;;;;;;5.13;4.63;;;14.20;99.90;;;;;;6309826;22;20473;-65
2022/09/20 09:58:56;;;;;;;9.50;5.80;;;14.20;99.90;;;;;;6302012;22;20497;-65
2022/09/20 10:01:37;;;;;;;8.17;5.07;;;13.90;1.00;;;;;;6308683;22;20456;-64
2022/09/20 10:04:15;;;;;;;9.97;5.43;;;13.60;1.00;;;;;;6310688;22;20387;-64
2022/09/20 10:06:48;;;;;;;8.67;5.60;;;13.50;1.00;;;;;;6309824;22;20842;-64
2022/09/20 10:09:32;;;;;;;10.17;5.87;;;13.60;1.00;;;;;;6310195;22;20416;-64
2022/09/20 10:12:16;;;;;;;8.00;5.17;;;13.50;1.00;;;;;;6310501;22;20879;-64
2022/09/20 10:15:03;;;;;;;6.27;4.53;;;13.90;1.00;;;;;;6310585;22;20426;-64
2022/09/20 10:17:46;;;;;;;11.40;5.57;;;14.60;1.00;;;;;;6309672;22;20459;-65
2022/09/20 10:20:32;;;;;;;6.50;4.70;;;15.30;1.00;;;;;;6310124;22;20821;-65
2022/09/20 10:23:11;;;;;;;8.13;7.27;;;16.00;99.90;;;;;;6309925;22;20473;-65
2022/09/20 10:25:48;;;;;;;5.47;3.60;;;16.60;99.90;;;;;;6309885;22;20411;-66
2022/09/20 10:28:32;;;;;;;9.50;4.00;;;16.50;99.90;;;;;;6309489;22;20490;-66
2022/09/20 10:31:09;;;;;;;5.57;3.57;;;17.00;99.90;;;;;;6309351;22;20416;-66
2022/09/20 10:33:47;;;;;;;5.43;3.00;;;16.60;99.90;;;;;;6309758;22;20395;-67
2022/09/20 10:36:23;;;;;;;6.07;3.10;;;15.70;99.90;;;;;;6310164;22;20723;-67
2022/09/20 10:38:59;;;;;;;7.60;3.40;;;14.90;99.90;;;;;;6308775;22;20755;-67
2022/09/20 10:45:02;;;;;;;9.20;5.40;;;13.90;99.90;;;;;;6309406;22;20407;-66
2022/09/20 10:47:38;;;;;;;9.10;4.30;;;14.00;99.90;;;;;;6309346;22;20483;-66
2022/09/20 10:50:18;;;;;;;8.67;4.37;;;14.70;1.00;;;;;;6309272;22;20424;-66
2022/09/20 10:53:26;;;;;;;6.97;3.77;;;15.20;99.90;;;;;;6309022;22;20422;-66
2022/09/20 10:56:08;;;;;;;8.53;5.13;;;15.60;99.90;;;;;;6215547;23;20510;-63
2022/09/20 10:58:58;;;;;;;40.23;36.13;;;15.40;99.90;;;;;;6299135;22;20511;-62
2022/09/20 11:01:32;;;;;;;8.10;4.73;;;14.90;99.90;;;;;;6310249;22;20729;-64
2022/09/20 11:04:18;;;;;;;7.33;4.17;;;14.60;99.90;;;;;;6309603;22;20419;-64
2022/09/20 11:06:52;;;;;;;6.80;3.30;;;14.00;99.90;;;;;;6308969;22;20397;-64
2022/09/20 11:09:25;;;;;;;7.67;3.37;;;13.70;1.00;;;;;;6310175;22;20411;-63
2022/09/20 11:11:57;;;;;;;7.00;3.37;;;13.80;1.00;;;;;;6310806;22;20402;-63
2022/09/20 11:14:32;;;;;;;6.17;4.13;;;14.00;1.00;;;;;;6310614;22;20911;-63
2022/09/20 11:17:10;;;;;;;5.67;3.37;;;14.10;1.00;;;;;;6311227;22;20415;-63
2022/09/20 11:19:47;;;;;;;7.13;4.40;;;14.30;1.00;;;;;;6309129;22;20435;-63
2022/09/20 11:22:27;;;;;;;6.10;2.90;;;14.00;1.00;;;;;;6310832;22;20533;-64
2022/09/20 11:25:01;;;;;;;7.50;6.30;;;14.00;99.90;;;;;;6309476;22;20412;-63
2022/09/20 11:27:33;;;;;;;9.37;4.50;;;14.00;99.90;;;;;;6309717;22;20946;-64
2022/09/20 11:30:05;;;;;;;6.03;2.83;;;14.10;99.90;;;;;;6309887;22;20450;-63
2022/09/20 11:32:38;;;;;;;4.53;2.10;;;14.30;99.90;;;;;;6308939;22;20431;-63
2022/09/20 11:35:19;;;;;;;4.20;2.77;;;14.40;99.90;;;;;;6309749;22;20439;-64
2022/09/20 11:37:57;;;;;;;4.77;2.33;;;14.50;99.90;;;;;;6309848;22;20416;-63
2022/09/20 11:40:36;;;;;;;6.70;3.30;;;14.20;99.90;;;;;;6309091;22;20472;-63
2022/09/20 11:43:06;;;;;;;7.07;3.50;;;14.70;1.00;;;;;;6308091;22;20426;-63
2022/09/20 11:45:38;;;;;;;5.20;3.03;;;14.80;99.90;;;;;;6307246;22;20391;-64
2022/09/20 11:48:14;;;;;;;6.70;3.50;;;15.00;99.90;;;;;;6307377;22;20444;-64
2022/09/20 11:50:55;;;;;;;7.17;4.10;;;15.50;1.00;;;;;;6307402;22;20510;-63
2022/09/20 11:53:37;;;;;;;5.63;3.10;;;16.80;1.00;;;;;;6308671;22;20424;-63
2022/09/20 11:56:10;;;;;;;6.93;3.40;;;17.90;99.90;;;;;;6309798;22;20856;-63
2022/09/20 11:58:47;;;;;;;6.40;3.30;;;17.70;99.90;;;;;;6310000;22;20414;-63
2022/09/20 12:01:26;;;;;;;4.10;2.40;;;17.70;99.90;;;;;;6308826;22;20869;-63
2022/09/20 12:03:55;;;;;;;6.63;2.67;;;18.20;99.90;;;;;;6310513;22;20416;-63
2022/09/20 12:06:29;;;;;;;4.50;2.60;;;17.70;99.90;;;;;;6311301;22;20436;-62
2022/09/20 12:08:59;;;;;;;4.60;2.60;;;18.10;99.90;;;;;;6309686;22;20447;-62
2022/09/20 12:11:29;;;;;;;6.13;2.40;;;18.30;99.90;;;;;;6310461;22;20420;-62
2022/09/20 12:14:03;;;;;;;5.23;2.97;;;18.20;99.90;;;;;;6309872;22;20455;-62
2022/09/20 12:16:41;;;;;;;4.80;2.00;;;18.50;99.90;;;;;;6308126;22;20428;-63
2022/09/20 12:19:12;;;;;;;2.37;1.57;;;18.00;99.90;;;;;;6308328;22;20498;-62
2022/09/20 12:22:31;;;;;;;3.20;2.20;;;18.20;99.90;;;;;;6309610;22;20399;-62
2022/09/20 12:25:38;;;;;;;8.73;3.53;;;17.80;99.90;;;;;;6214873;23;20400;-63
2022/09/20 12:28:15;;;;;;;2.33;2.03;;;17.40;99.90;;;;;;6203979;23;20422;-63
2022/09/20 12:30:42;;;;;;;2.97;2.33;;;17.20;99.90;;;;;;6287056;22;20424;-63
2022/09/20 12:33:21;;;;;;;3.27;2.10;;;17.60;99.90;;;;;;6308554;22;20434;-63
2022/09/20 12:36:13;;;;;;;3.20;2.10;;;17.90;99.90;;;;;;6309434;22;20503;-63
2022/09/20 12:39:02;;;;;;;3.67;2.77;;;18.10;99.90;;;;;;6307918;22;20410;-63
2022/09/20 12:41:46;;;;;;;4.27;2.20;;;18.00;99.90;;;;;;6307488;22;20412;-63
2022/09/20 12:44:32;;;;;;;4.50;2.40;;;17.70;99.90;;;;;;6307108;22;20412;-63
2022/09/20 12:47:02;;;;;;;4.67;2.07;;;17.30;99.90;;;;;;6308347;22;20418;-63
2022/09/20 12:52:52;;;;;;;4.07;2.10;;;17.50;99.90;;;;;;6309334;22;20402;-63
2022/09/20 12:55:38;;;;;;;6.20;2.30;;;16.90;99.90;;;;;;6310309;22;20420;-63
2022/09/20 12:58:21;;;;;;;4.80;2.27;;;18.10;99.90;;;;;;6308682;22;20515;-63
2022/09/20 13:00:51;;;;;;;4.17;2.07;;;18.70;99.90;;;;;;6310241;22;20845;-63
2022/09/20 13:03:28;;;;;;;4.27;2.97;;;19.10;99.90;;;;;;6310720;22;20512;-63
2022/09/20 13:06:27;;;;;;;2.40;1.93;;;18.90;99.90;;;;;;6310221;22;20470;-64
2022/09/20 13:09:04;;;;;;;3.10;1.97;;;18.60;99.90;;;;;;6308813;22;20451;-64
2022/09/20 13:11:39;;;;;;;2.70;2.00;;;17.90;99.90;;;;;;6308423;22;20869;-64
2022/09/20 13:14:12;;;;;;;4.03;2.03;;;17.00;99.90;;;;;;6307721;22;20415;-64
2022/09/20 13:16:51;;;;;;;4.60;2.30;;;16.90;99.90;;;;;;6309751;22;20416;-64
2022/09/20 13:19:21;;;;;;;2.70;2.17;;;16.40;99.90;;;;;;6308031;22;20864;-64
2022/09/20 13:21:55;;;;;;;5.33;2.77;;;15.90;99.90;;;;;;6308943;22;20838;-64
2022/09/20 13:24:25;;;;;;;5.73;2.40;;;15.90;99.90;;;;;;6309104;22;20417;-64
2022/09/20 13:26:58;;;;;;;8.20;2.00;;;15.70;99.90;;;;;;6309103;22;20782;-64
2022/09/20 13:29:34;;;;;;;3.83;2.43;;;16.10;99.90;;;;;;6309070;22;20491;-64
2022/09/20 13:32:19;;;;;;;4.23;2.33;;;16.30;99.90;;;;;;6308817;22;20416;-64
2022/09/20 13:34:46;;;;;;;4.87;1.80;;;16.50;99.90;;;;;;6308911;22;20390;-64
2022/09/20 13:37:22;;;;;;;5.60;2.63;;;16.20;99.90;;;;;;6308314;22;20397;-64
2022/09/20 13:39:56;;;;;;;3.03;2.57;;;16.30;99.90;;;;;;6309292;22;20505;-65
2022/09/20 13:42:23;;;;;;;3.20;2.20;;;16.60;99.90;;;;;;6310385;22;20686;-64
2022/09/20 13:44:52;;;;;;;8.33;5.07;;;16.90;99.90;;;;;;6310109;22;20470;-64
2022/09/20 13:47:27;;;;;;;14.13;10.63;;;17.00;99.90;;;;;;6309158;22;20416;-65
2022/09/20 13:50:01;;;;;;;6.30;4.70;;;17.10;99.90;;;;;;6309153;22;20450;-65
2022/09/20 13:52:32;;;;;;;4.73;3.10;;;17.50;99.90;;;;;;6308829;22;20463;-65
2022/09/20 13:55:03;;;;;;;6.33;2.50;;;17.40;99.90;;;;;;6309584;22;20771;-65
2022/09/20 13:57:32;;;;;;;3.43;2.90;;;17.30;99.90;;;;;;6310452;22;20519;-65
2022/09/20 14:00:05;;;;;;;5.63;3.00;;;17.80;99.90;;;;;;6308803;22;20415;-65
2022/09/20 14:02:34;;;;;;;3.60;2.60;;;17.90;99.90;;;;;;6308073;22;20486;-65